createdAt,value
2019-02-21T00:01:29.115Z,16.50
2019-02-21T00:03:57.521Z,16.00
2019-02-21T00:06:25.937Z,15.80
2019-02-21T00:08:54.423Z,17.00
2019-02-21T00:11:22.827Z,15.17
2019-02-21T00:13:51.232Z,17.27
2019-02-21T00:16:19.711Z,16.73
2019-02-21T00:18:48.127Z,16.70
2019-02-21T00:21:16.536Z,17.27
2019-02-21T00:23:45.092Z,15.70
2019-02-21T00:26:13.502Z,15.93
2019-02-21T00:28:41.929Z,25.10
2019-02-21T00:31:10.363Z,18.47
2019-02-21T00:33:38.824Z,16.53
2019-02-21T00:36:07.249Z,15.87
2019-02-21T00:38:35.664Z,15.90
2019-02-21T00:41:04.854Z,15.40
2019-02-21T00:43:33.649Z,17.40
2019-02-21T00:46:02.944Z,18.57
2019-02-21T00:48:32.984Z,16.60
2019-02-21T00:51:01.415Z,17.50
2019-02-21T00:53:29.818Z,17.47
2019-02-21T00:55:58.521Z,17.63
2019-02-21T00:58:26.938Z,18.70
2019-02-21T01:00:55.340Z,17.70
2019-02-21T01:03:23.782Z,15.50
2019-02-21T01:05:52.185Z,16.67
2019-02-21T01:08:20.623Z,17.33
2019-02-21T01:10:49.028Z,18.47
2019-02-21T01:13:17.441Z,16.70
2019-02-21T01:15:45.860Z,17.43
2019-02-21T01:18:14.256Z,18.33
2019-02-21T01:20:42.673Z,15.10
2019-02-21T01:23:11.140Z,17.43
2019-02-21T01:25:39.581Z,17.97
2019-02-21T01:28:07.984Z,16.73
2019-02-21T01:30:36.404Z,16.80
2019-02-21T01:33:05.188Z,17.40
2019-02-21T01:35:33.599Z,15.27
2019-02-21T01:38:02.169Z,18.47
2019-02-21T01:40:30.576Z,16.83
2019-02-21T01:42:58.986Z,17.40
2019-02-21T01:45:27.400Z,17.23
2019-02-21T01:47:55.799Z,18.20
2019-02-21T01:50:24.402Z,17.77
2019-02-21T01:52:52.809Z,19.70
2019-02-21T01:55:21.216Z,18.00
2019-02-21T01:57:49.621Z,16.00
2019-02-21T02:00:18.038Z,17.40
2019-02-21T02:02:46.438Z,16.80
2019-02-21T02:05:14.900Z,17.97
2019-02-21T02:07:43.301Z,17.00
2019-02-21T02:10:13.198Z,16.27
2019-02-21T02:12:41.598Z,16.63
2019-02-21T02:15:10.472Z,16.10
2019-02-21T02:17:38.959Z,17.37
2019-02-21T02:20:08.501Z,18.47
2019-02-21T02:22:36.903Z,18.80
2019-02-21T02:25:05.713Z,18.60
2019-02-21T02:27:34.101Z,17.43
2019-02-21T02:30:02.516Z,18.60
2019-02-21T02:32:32.014Z,17.60
2019-02-21T02:35:00.525Z,18.63
2019-02-21T02:37:29.109Z,19.63
2019-02-21T02:39:57.527Z,18.50
2019-02-21T02:42:25.934Z,18.93
2019-02-21T02:44:54.354Z,19.33
2019-02-21T02:47:22.861Z,17.27
2019-02-21T02:49:51.571Z,19.60
2019-02-21T02:52:19.969Z,19.90
2019-02-21T02:54:48.663Z,16.13
2019-02-21T02:57:17.079Z,19.90
2019-02-21T02:59:45.469Z,19.90
2019-02-21T03:02:13.950Z,19.43
2019-02-21T03:04:42.460Z,21.20
2019-02-21T03:07:11.474Z,19.67
2019-02-21T03:09:39.872Z,17.80
2019-02-21T03:12:08.444Z,20.60
2019-02-21T03:14:36.873Z,24.00
2019-02-21T03:17:05.345Z,22.53
2019-02-21T03:19:33.757Z,20.50
2019-02-21T03:22:02.324Z,21.40
2019-02-21T03:24:30.733Z,18.33
2019-02-21T03:26:59.154Z,20.67
2019-02-21T03:29:27.565Z,21.23
2019-02-21T03:31:56.469Z,20.03
2019-02-21T03:34:25.182Z,21.17
2019-02-21T03:36:53.849Z,21.87
2019-02-21T03:39:22.262Z,18.60
2019-02-21T03:41:50.668Z,16.70
2019-02-21T03:44:19.076Z,20.57
2019-02-21T03:46:47.671Z,21.73
2019-02-21T03:49:16.195Z,21.50
2019-02-21T03:51:44.608Z,20.30
2019-02-21T03:54:13.025Z,20.67
2019-02-21T03:56:41.441Z,20.57
2019-02-21T03:59:09.846Z,20.20
2019-02-21T04:01:38.282Z,22.27
2019-02-21T04:04:06.690Z,19.37
2019-02-21T04:06:35.101Z,19.47
2019-02-21T04:09:05.049Z,20.20
2019-02-21T04:11:33.473Z,19.60
2019-02-21T04:14:01.880Z,19.20
2019-02-21T04:16:30.292Z,22.00
2019-02-21T04:18:58.704Z,21.67
2019-02-21T04:21:27.112Z,20.97
2019-02-21T04:23:55.517Z,18.90
2019-02-21T04:26:23.937Z,19.37
2019-02-21T04:28:52.623Z,20.93
2019-02-21T04:31:21.055Z,20.67
2019-02-21T04:33:49.545Z,20.80
2019-02-21T04:36:17.963Z,21.50
2019-02-21T04:38:46.673Z,21.93
2019-02-21T04:41:15.365Z,21.30
2019-02-21T04:43:43.773Z,19.70
2019-02-21T04:46:12.178Z,20.80
2019-02-21T04:48:40.596Z,20.20
2019-02-21T04:51:09.064Z,19.47
2019-02-21T04:53:37.491Z,21.67
2019-02-21T04:56:05.918Z,21.07
2019-02-21T04:58:34.354Z,22.70
2019-02-21T05:01:02.768Z,21.63
2019-02-21T05:03:31.254Z,21.27
2019-02-21T05:05:59.664Z,23.10
2019-02-21T05:08:28.154Z,22.07
2019-02-21T05:10:56.561Z,22.40
2019-02-21T05:13:25.231Z,21.23
2019-02-21T05:15:53.718Z,23.40
2019-02-21T05:18:22.133Z,20.63
2019-02-21T05:20:50.541Z,22.67
2019-02-21T05:23:18.960Z,23.33
2019-02-21T05:25:47.371Z,20.83
2019-02-21T05:28:20.370Z,21.60
2019-02-21T05:30:50.548Z,21.83
2019-02-21T05:33:36.758Z,22.97
2019-02-21T05:36:25.365Z,22.60
2019-02-21T05:38:58.372Z,21.70
2019-02-21T05:41:28.425Z,21.40
2019-02-21T05:44:07.502Z,22.27
2019-02-21T05:46:49.755Z,20.20
2019-02-21T05:49:19.891Z,22.97
2019-02-21T05:51:50.246Z,22.77
2019-02-21T05:54:23.205Z,18.70
2019-02-21T05:56:53.253Z,22.47
2019-02-21T05:59:26.432Z,21.93
2019-02-21T06:02:08.467Z,23.83
2019-02-21T06:04:47.268Z,22.40
2019-02-21T06:07:35.702Z,22.63
2019-02-21T06:10:09.324Z,21.23
2019-02-21T06:12:54.208Z,21.77
2019-02-21T06:15:24.269Z,20.80
2019-02-21T06:18:03.069Z,23.20
2019-02-21T06:20:33.884Z,21.57
2019-02-21T06:23:04.175Z,22.00
2019-02-21T06:25:56.707Z,18.87
2019-02-21T06:28:24.049Z,21.50
2019-02-21T06:30:54.125Z,21.63
2019-02-21T06:33:22.550Z,20.80
2019-02-21T06:35:50.966Z,21.03
2019-02-21T06:38:19.378Z,21.37
2019-02-21T06:40:47.796Z,22.03
2019-02-21T06:43:16.211Z,21.17
2019-02-21T06:45:44.638Z,20.07
2019-02-21T06:48:13.570Z,20.40
2019-02-21T06:50:42.247Z,17.70
2019-02-21T06:53:10.669Z,19.93
2019-02-21T06:55:39.419Z,20.13
2019-02-21T06:58:08.251Z,21.50
2019-02-21T07:00:37.048Z,18.77
2019-02-21T07:03:15.224Z,20.43
2019-02-21T07:05:37.008Z,20.90
2019-02-21T07:08:05.585Z,20.53
2019-02-21T07:10:34.003Z,21.50
2019-02-21T07:13:02.627Z,22.40
2019-02-21T07:15:31.049Z,20.20
2019-02-21T07:17:59.489Z,22.73
2019-02-21T07:20:30.220Z,22.40
2019-02-21T07:22:58.624Z,21.93
2019-02-21T07:25:28.672Z,21.90
2019-02-21T07:27:58.344Z,21.90
2019-02-21T07:30:26.965Z,20.77
2019-02-21T07:32:55.401Z,18.23
2019-02-21T07:35:23.825Z,18.47
2019-02-21T07:37:52.221Z,21.40
2019-02-21T07:40:20.659Z,19.70
2019-02-21T07:42:49.054Z,22.43
2019-02-21T07:45:17.513Z,21.63
2019-02-21T07:47:45.935Z,21.53
2019-02-21T07:50:14.334Z,22.40
2019-02-21T07:52:42.768Z,22.57
2019-02-21T07:55:11.182Z,21.80
2019-02-21T07:57:39.604Z,22.50
2019-02-21T08:00:12.913Z,21.47
2019-02-21T08:02:41.321Z,22.60
2019-02-21T08:05:09.805Z,24.30
2019-02-21T08:07:38.209Z,23.70
2019-02-21T08:10:09.769Z,22.53
2019-02-21T08:12:40.525Z,24.10
2019-02-21T08:15:13.016Z,21.07
2019-02-21T08:17:41.443Z,22.10
2019-02-21T08:20:11.889Z,21.80
2019-02-21T08:22:40.339Z,21.63
2019-02-21T08:25:10.441Z,22.30
2019-02-21T08:27:38.855Z,23.37
2019-02-21T08:30:13.405Z,19.90
2019-02-21T08:33:01.942Z,22.03
2019-02-21T08:35:31.373Z,23.67
2019-02-21T08:37:59.797Z,21.37
2019-02-21T08:40:28.213Z,20.00
2019-02-21T08:42:56.633Z,21.37
2019-02-21T08:45:25.033Z,23.17
2019-02-21T08:47:53.452Z,21.57
2019-02-21T08:50:22.450Z,21.70
2019-02-21T08:52:51.166Z,23.23
2019-02-21T08:55:19.600Z,22.73
2019-02-21T08:57:49.195Z,25.20
2019-02-21T09:00:17.969Z,20.20
2019-02-21T09:02:46.381Z,23.27
2019-02-21T09:05:15.832Z,25.33
2019-02-21T09:07:46.198Z,23.23
2019-02-21T09:10:14.446Z,22.97
2019-02-21T09:12:47.833Z,23.93
2019-02-21T09:15:17.127Z,22.30
2019-02-21T09:17:45.534Z,24.40
2019-02-21T09:20:14.011Z,22.93
2019-02-21T09:22:42.497Z,22.87
2019-02-21T09:25:13.310Z,22.20
2019-02-21T09:27:41.719Z,22.30
2019-02-21T09:30:15.415Z,21.07
2019-02-21T09:32:43.826Z,19.67
2019-02-21T09:35:12.228Z,22.90
2019-02-21T09:37:40.644Z,23.10
2019-02-21T09:40:14.022Z,16.50
2019-02-21T09:42:42.520Z,25.50
2019-02-21T09:45:16.297Z,23.80
2019-02-21T09:47:44.843Z,22.93
2019-02-21T09:50:13.713Z,20.17
2019-02-21T09:52:42.198Z,23.27
2019-02-21T09:55:13.378Z,19.43
2019-02-21T09:57:41.790Z,20.83
2019-02-21T10:00:18.672Z,24.50
2019-02-21T10:02:47.088Z,24.10
2019-02-21T10:05:15.850Z,23.70
2019-02-21T10:07:44.372Z,22.17
2019-02-21T10:10:19.349Z,22.97
2019-02-21T10:12:47.764Z,21.70
2019-02-21T10:15:16.917Z,24.13
2019-02-21T10:17:45.509Z,24.07
2019-02-21T10:20:16.373Z,24.20
2019-02-21T10:22:44.776Z,21.80
2019-02-21T10:25:18.958Z,23.03
2019-02-21T10:27:47.365Z,24.30
2019-02-21T10:30:18.513Z,21.90
2019-02-21T10:32:46.922Z,21.23
2019-02-21T10:35:16.093Z,25.03
2019-02-21T10:37:44.505Z,21.17
2019-02-21T10:40:15.529Z,24.43
2019-02-21T10:42:43.939Z,22.93
2019-02-21T10:45:17.345Z,24.83
2019-02-21T10:47:45.745Z,20.60
2019-02-21T10:50:16.604Z,21.57
2019-02-21T10:52:45.097Z,28.40
2019-02-21T10:55:13.948Z,21.80
2019-02-21T10:57:42.349Z,23.53
2019-02-21T11:00:26.341Z,24.63
2019-02-21T11:02:54.822Z,20.77
2019-02-21T11:05:23.240Z,25.57
2019-02-21T11:07:51.654Z,23.63
2019-02-21T11:10:23.140Z,22.47
2019-02-21T11:12:51.554Z,24.10
2019-02-21T11:15:22.555Z,25.77
2019-02-21T11:17:51.015Z,22.70
2019-02-21T11:20:20.465Z,23.27
2019-02-21T11:22:48.932Z,23.57
2019-02-21T11:25:17.345Z,26.83
2019-02-21T11:27:45.748Z,22.87
2019-02-21T11:30:18.572Z,23.27
2019-02-21T11:32:48.614Z,24.77
2019-02-21T11:35:17.159Z,23.80
2019-02-21T11:37:47.056Z,23.80
2019-02-21T11:40:17.039Z,23.90
2019-02-21T11:42:45.805Z,25.60
2019-02-21T11:45:16.225Z,24.30
2019-02-21T11:47:44.638Z,25.50
2019-02-21T11:50:15.748Z,26.80
2019-02-21T11:52:44.228Z,25.80
2019-02-21T11:55:15.637Z,25.90
2019-02-21T11:57:44.050Z,24.87
2019-02-21T12:00:15.648Z,27.70
2019-02-21T12:02:44.060Z,30.00
2019-02-21T12:05:17.459Z,30.53
2019-02-21T12:07:42.603Z,29.80
2019-02-21T12:10:12.253Z,25.60
2019-02-21T12:12:40.683Z,28.27
2019-02-21T12:15:12.186Z,28.77
2019-02-21T12:17:42.727Z,30.07
2019-02-21T12:20:13.157Z,25.33
2019-02-21T12:22:41.568Z,29.50
2019-02-21T12:25:12.082Z,28.30
2019-02-21T12:27:40.502Z,26.90
2019-02-21T12:30:11.947Z,25.90
2019-02-21T12:32:40.365Z,29.07
2019-02-21T12:35:09.308Z,28.50
2019-02-21T12:37:37.731Z,28.33
2019-02-21T12:40:15.239Z,29.13
2019-02-21T12:42:43.653Z,28.20
2019-02-21T12:45:14.791Z,26.50
2019-02-21T12:47:50.649Z,22.60
2019-02-21T12:50:13.967Z,25.77
2019-02-21T12:52:42.385Z,24.10
2019-02-21T12:55:11.427Z,27.80
2019-02-21T12:57:39.846Z,26.77
2019-02-21T13:00:14.096Z,26.43
2019-02-21T13:02:42.509Z,27.50
2019-02-21T13:05:10.921Z,27.67
2019-02-21T13:07:39.333Z,29.30
2019-02-21T13:10:13.288Z,29.20
2019-02-21T13:12:41.739Z,31.00
2019-02-21T13:15:13.307Z,30.53
2019-02-21T13:17:41.788Z,29.17
2019-02-21T13:20:11.729Z,27.70
2019-02-21T13:22:40.147Z,31.50
2019-02-21T13:25:13.966Z,30.00
2019-02-21T13:27:42.372Z,27.93
2019-02-21T13:30:13.925Z,28.10
2019-02-21T13:32:42.381Z,28.00
2019-02-21T13:35:11.269Z,26.80
2019-02-21T13:37:39.679Z,29.83
2019-02-21T13:40:10.692Z,30.93
2019-02-21T13:42:39.113Z,30.80
2019-02-21T13:45:09.380Z,31.23
2019-02-21T13:47:39.246Z,30.23
2019-02-21T13:50:10.947Z,33.03
2019-02-21T13:52:39.348Z,28.97
2019-02-21T13:55:07.810Z,26.83
2019-02-21T13:57:36.238Z,28.80
2019-02-21T14:00:07.691Z,21.53
2019-02-21T14:02:36.089Z,25.57
2019-02-21T14:05:06.452Z,29.13
2019-02-21T14:07:37.237Z,25.80
2019-02-21T14:10:07.937Z,27.93
2019-02-21T14:12:36.333Z,28.13
2019-02-21T14:15:07.893Z,26.90
2019-02-21T14:17:36.302Z,27.37
2019-02-21T14:20:06.856Z,28.97
2019-02-21T14:22:35.269Z,28.63
2019-02-21T14:25:04.929Z,26.97
2019-02-21T14:27:33.338Z,25.97
2019-02-21T14:30:01.814Z,27.70
2019-02-21T14:32:30.264Z,28.50
2019-02-21T14:34:58.689Z,28.50
2019-02-21T14:37:27.110Z,29.23
2019-02-21T14:39:55.526Z,30.43
2019-02-21T14:42:23.927Z,29.07
2019-02-21T14:44:52.349Z,32.77
2019-02-21T14:47:20.744Z,32.97
2019-02-21T14:49:49.156Z,32.20
2019-02-21T14:52:17.586Z,32.80
2019-02-21T14:54:46.016Z,33.33
2019-02-21T14:57:15.403Z,32.47
2019-02-21T14:59:44.936Z,31.93
2019-02-21T15:02:13.614Z,32.70
2019-02-21T15:04:42.032Z,34.50
2019-02-21T15:07:10.514Z,35.17
2019-02-21T15:09:38.951Z,35.67
2019-02-21T15:12:07.400Z,34.57
2019-02-21T15:14:35.854Z,33.13
2019-02-21T15:17:04.294Z,34.80
2019-02-21T15:19:32.684Z,35.30
2019-02-21T15:22:01.113Z,28.20
2019-02-21T15:24:29.508Z,34.23
2019-02-21T15:27:08.111Z,34.03
2019-02-21T15:29:30.385Z,27.77
2019-02-21T15:32:08.125Z,34.27
2019-02-21T15:34:28.925Z,35.30
2019-02-21T15:36:57.349Z,31.93
2019-02-21T15:39:25.763Z,32.43
2019-02-21T15:41:54.194Z,31.27
2019-02-21T15:44:22.585Z,32.50
2019-02-21T15:46:51.010Z,32.77
2019-02-21T15:49:19.445Z,28.97
2019-02-21T15:51:47.937Z,31.23
2019-02-21T15:54:16.361Z,33.93
2019-02-21T15:56:44.777Z,33.57
2019-02-21T15:59:13.798Z,32.10
2019-02-21T16:01:47.459Z,31.30
2019-02-21T16:04:12.556Z,31.30
2019-02-21T16:06:51.021Z,31.67
2019-02-21T16:09:16.374Z,33.57
2019-02-21T16:11:41.244Z,30.73
2019-02-21T16:14:09.717Z,31.70
2019-02-21T16:16:39.463Z,31.70
2019-02-21T16:19:07.882Z,29.70
2019-02-21T16:21:36.285Z,31.77
2019-02-21T16:24:04.701Z,32.93
2019-02-21T16:26:33.115Z,32.87
2019-02-21T16:29:01.525Z,31.30
2019-02-21T16:31:29.972Z,32.90
2019-02-21T16:33:58.386Z,29.07
2019-02-21T16:36:26.784Z,28.90
2019-02-21T16:38:55.198Z,27.80
2019-02-21T16:41:23.632Z,28.70
2019-02-21T16:43:52.045Z,30.27
2019-02-21T16:46:20.444Z,26.27
2019-02-21T16:48:48.862Z,29.17
2019-02-21T16:51:17.261Z,25.97
2019-02-21T16:53:45.681Z,26.93
2019-02-21T16:56:14.091Z,27.60
2019-02-21T16:58:42.948Z,28.00
2019-02-21T17:01:11.873Z,24.00
2019-02-21T17:03:41.829Z,22.83
2019-02-21T17:06:10.232Z,23.40
2019-02-21T17:08:38.722Z,20.00
2019-02-21T17:11:07.168Z,17.10
2019-02-21T17:13:35.677Z,18.67
2019-02-21T17:16:04.105Z,15.27
2019-02-21T17:18:32.523Z,17.00
2019-02-21T17:21:00.934Z,15.57
2019-02-21T17:23:29.355Z,15.60
2019-02-21T17:25:57.753Z,17.47
2019-02-21T17:28:26.174Z,15.97
2019-02-21T17:30:54.576Z,15.03
2019-02-21T17:33:22.989Z,15.67
2019-02-21T17:35:51.460Z,15.60
2019-02-21T17:38:20.185Z,15.67
2019-02-21T17:40:48.637Z,14.37
2019-02-21T17:43:17.100Z,14.30
2019-02-21T17:45:45.501Z,15.77
2019-02-21T17:48:13.961Z,16.23
2019-02-21T17:50:42.361Z,15.93
2019-02-21T17:53:10.778Z,17.77
2019-02-21T17:55:39.189Z,17.57
2019-02-21T17:58:07.600Z,18.97
2019-02-21T18:00:37.664Z,17.53
2019-02-21T18:03:06.073Z,16.53
2019-02-21T18:05:34.476Z,18.33
2019-02-21T18:08:02.882Z,20.17
2019-02-21T18:10:31.388Z,16.97
2019-02-21T18:12:59.802Z,17.20
2019-02-21T18:15:28.225Z,18.60
2019-02-21T18:17:56.629Z,18.93
2019-02-21T18:20:25.059Z,19.47
2019-02-21T18:22:53.462Z,20.47
2019-02-21T18:25:37.519Z,22.37
2019-02-21T18:28:06.002Z,19.50
2019-02-21T18:30:34.408Z,20.17
2019-02-21T18:33:04.467Z,20.33
2019-02-21T18:35:32.886Z,18.83
2019-02-21T18:38:01.292Z,17.73
2019-02-21T18:40:29.729Z,18.00
2019-02-21T18:42:58.198Z,17.47
2019-02-21T18:45:26.637Z,17.87
2019-02-21T18:47:55.023Z,18.20
2019-02-21T18:50:23.509Z,18.30
2019-02-21T18:52:53.452Z,16.13
2019-02-21T18:55:21.876Z,16.60
2019-02-21T18:57:50.276Z,17.87
2019-02-21T19:00:22.510Z,17.43
2019-02-21T19:02:51.012Z,16.40
2019-02-21T19:05:21.132Z,14.10
2019-02-21T19:08:00.388Z,16.60
2019-02-21T19:10:21.248Z,14.93
2019-02-21T19:12:49.673Z,15.20
2019-02-21T19:15:21.992Z,15.00
2019-02-21T19:17:50.614Z,15.40
2019-02-21T19:20:23.363Z,15.83
2019-02-21T19:22:51.811Z,14.10
2019-02-21T19:25:20.220Z,17.47
2019-02-21T19:27:48.715Z,16.83
2019-02-21T19:30:20.205Z,16.23
2019-02-21T19:32:48.898Z,16.57
2019-02-21T19:35:17.928Z,14.17
2019-02-21T19:37:46.380Z,17.40
2019-02-21T19:40:15.539Z,18.00
2019-02-21T19:42:44.276Z,19.60
2019-02-21T19:45:12.942Z,20.23
2019-02-21T19:47:41.406Z,17.07
2019-02-21T19:50:10.267Z,21.30
2019-02-21T19:52:38.740Z,20.13
2019-02-21T19:55:09.508Z,20.30
2019-02-21T19:57:38.250Z,19.60
2019-02-21T20:00:25.145Z,19.37
2019-02-21T20:02:54.430Z,19.03
2019-02-21T20:05:23.295Z,22.30
2019-02-21T20:07:51.993Z,19.13
2019-02-21T20:10:20.407Z,19.50
2019-02-21T20:12:49.197Z,20.97
2019-02-21T20:15:17.775Z,20.60
2019-02-21T20:17:46.200Z,19.27
2019-02-21T20:20:19.964Z,22.60
2019-02-21T20:22:48.422Z,23.13
2019-02-21T20:25:16.822Z,21.70
2019-02-21T20:27:45.237Z,23.33
2019-02-21T20:30:16.308Z,23.00
2019-02-21T20:32:45.283Z,24.30
2019-02-21T20:35:14.639Z,23.23
2019-02-21T20:37:43.040Z,25.87
2019-02-21T20:40:13.045Z,25.20
2019-02-21T20:42:41.483Z,25.50
2019-02-21T20:45:14.202Z,65.33
2019-02-21T20:47:42.708Z,25.53
2019-02-21T20:50:12.501Z,27.53
2019-02-21T20:52:41.197Z,28.47
2019-02-21T20:55:11.428Z,30.27
2019-02-21T20:57:39.954Z,26.73
2019-02-21T21:00:14.711Z,31.30
2019-02-21T21:02:43.676Z,30.67
2019-02-21T21:05:12.620Z,32.67
2019-02-21T21:07:41.620Z,32.20
2019-02-21T21:10:14.911Z,33.57
2019-02-21T21:12:43.306Z,30.10
2019-02-21T21:15:14.177Z,32.80
2019-02-21T21:17:42.866Z,35.60
2019-02-21T21:20:16.969Z,31.90
2019-02-21T21:22:43.158Z,35.90
2019-02-21T21:25:18.582Z,34.30
2019-02-21T21:27:47.071Z,34.40
2019-02-21T21:30:17.288Z,33.20
2019-02-21T21:32:45.761Z,30.80
2019-02-21T21:35:14.168Z,34.23
2019-02-21T21:37:42.573Z,31.33
2019-02-21T21:40:13.894Z,33.00
2019-02-21T21:42:42.388Z,32.50
2019-02-21T21:45:14.113Z,27.93
2019-02-21T21:47:42.516Z,29.67
2019-02-21T21:50:13.887Z,30.00
2019-02-21T21:52:42.377Z,34.20
2019-02-21T21:55:10.796Z,30.37
2019-02-21T21:57:39.270Z,31.57
2019-02-21T22:00:11.052Z,31.33
2019-02-21T22:02:39.454Z,31.40
2019-02-21T22:05:09.629Z,32.30
2019-02-21T22:07:38.181Z,29.40
2019-02-21T22:10:09.740Z,32.90
2019-02-21T22:12:38.165Z,32.70
2019-02-21T22:15:09.924Z,31.80
2019-02-21T22:17:38.411Z,35.63
2019-02-21T22:20:08.176Z,35.93
2019-02-21T22:22:36.592Z,33.57
2019-02-21T22:25:10.495Z,34.33
2019-02-21T22:27:39.020Z,37.13
2019-02-21T22:30:13.089Z,33.77
2019-02-21T22:32:41.523Z,32.87
2019-02-21T22:35:11.470Z,33.90
2019-02-21T22:37:40.205Z,36.13
2019-02-21T22:40:11.533Z,38.63
2019-02-21T22:42:39.964Z,35.10
2019-02-21T22:45:09.817Z,39.30
2019-02-21T22:47:38.339Z,35.20
2019-02-21T22:50:12.571Z,34.27
2019-02-21T22:52:41.013Z,35.50
2019-02-21T22:55:10.411Z,34.33
2019-02-21T22:57:39.193Z,36.97
2019-02-21T23:00:31.885Z,35.60
2019-02-21T23:03:01.365Z,35.20
2019-02-21T23:05:38.508Z,35.90
2019-02-21T23:08:09.785Z,35.20
2019-02-21T23:10:38.167Z,35.83
2019-02-21T23:13:06.585Z,34.23
2019-02-21T23:15:34.993Z,32.30
2019-02-21T23:18:03.414Z,33.40
2019-02-21T23:20:32.309Z,35.67
2019-02-21T23:23:00.740Z,35.97
2019-02-21T23:25:29.143Z,36.40
2019-02-21T23:27:57.565Z,37.43
2019-02-21T23:30:25.974Z,39.40
2019-02-21T23:32:54.400Z,36.43
2019-02-21T23:35:22.814Z,35.60
2019-02-21T23:37:51.229Z,36.00
2019-02-21T23:40:19.637Z,34.43
2019-02-21T23:42:48.057Z,34.53
2019-02-21T23:45:19.293Z,35.77
2019-02-21T23:47:50.000Z,35.27
2019-02-21T23:50:17.884Z,32.90
2019-02-21T23:52:46.294Z,32.67
2019-02-21T23:55:14.710Z,32.73
2019-02-21T23:57:43.155Z,31.63
